Private Wetterstation Sandau
Wetterdaten: Montag, 09.04.2012
Datum Zeit Temp. A. Feuchte A. Luftdruck Regen Wind Richtung Richtung Taupunkt Windchill
09.04.2012 00:01 1,8 C 59 % 1013,0 hPa 0,0 l/m 11,2 km/h (2 Bft) S 180 -5,3 C -1,4 C
09.04.2012 00:06 1,7 C 60 % 1013,2 hPa 0,0 l/m 2,5 km/h (1 Bft) S 180 -5,2 C 1,7 C
09.04.2012 00:11 1,6 C 60 % 1012,9 hPa 0,0 l/m 8,6 km/h (2 Bft) S 180 -5,3 C -1,0 C
09.04.2012 00:16 1,6 C 60 % 1012,9 hPa 0,0 l/m 2,9 km/h (1 Bft) S-SO 157 -5,3 C 1,6 C
09.04.2012 00:21 1,6 C 61 % 1012,9 hPa 0,0 l/m 8,6 km/h (2 Bft) S 180 -5,1 C -1,0 C
09.04.2012 00:26 1,5 C 61 % 1012,9 hPa 0,0 l/m 5,4 km/h (1 Bft) S 180 -5,2 C -0,1 C
09.04.2012 00:31 1,5 C 61 % 1012,7 hPa 0,0 l/m 4,7 km/h (1 Bft) S-SO 157 -5,2 C 0,2 C
09.04.2012 00:36 1,5 C 62 % 1012,8 hPa 0,0 l/m 4,3 km/h (1 Bft) S-SW 202 -5,0 C 1,5 C
09.04.2012 00:41 1,4 C 62 % 1012,7 hPa 0,0 l/m 2,9 km/h (1 Bft) S-SO 157 -5,1 C 1,4 C
09.04.2012 00:46 1,3 C 62 % 1012,8 hPa 0,0 l/m 8,3 km/h (2 Bft) S-SO 157 -5,2 C -1,3 C
09.04.2012 00:51 1,3 C 62 % 1012,5 hPa 0,0 l/m 6,1 km/h (2 Bft) S 180 -5,2 C -0,6 C
09.04.2012 00:56 1,3 C 62 % 1012,7 hPa 0,0 l/m 3,6 km/h (1 Bft) S-SO 157 -5,2 C 1,3 C
09.04.2012 01:01 1,3 C 63 % 1012,5 hPa 0,0 l/m 5,4 km/h (1 Bft) S-SO 157 -5,0 C -0,3 C
09.04.2012 01:06 1,2 C 63 % 1012,6 hPa 0,0 l/m 9,4 km/h (2 Bft) S-SW 202 -5,0 C -1,7 C
09.04.2012 01:11 1,1 C 63 % 1012,3 hPa 0,0 l/m 5,0 km/h (1 Bft) S-SO 157 -5,1 C -0,3 C
09.04.2012 01:16 1,1 C 63 % 1012,4 hPa 0,0 l/m 3,2 km/h (1 Bft) S-SO 157 -5,1 C 1,1 C
09.04.2012 01:21 1,1 C 63 % 1012,4 hPa 0,0 l/m 7,9 km/h (2 Bft) S 180 -5,1 C -1,4 C
09.04.2012 01:26 1,0 C 63 % 1012,3 hPa 0,0 l/m 5,0 km/h (1 Bft) S-SO 157 -5,2 C -0,5 C
09.04.2012 01:31 0,9 C 63 % 1012,3 hPa 0,0 l/m 5,8 km/h (2 Bft) S-SO 157 -5,3 C -0,9 C
09.04.2012 01:36 0,9 C 63 % 1012,0 hPa 0,0 l/m 2,9 km/h (1 Bft) S-SO 157 -5,3 C 0,9 C
09.04.2012 01:41 0,9 C 63 % 1012,1 hPa 0,0 l/m 5,4 km/h (1 Bft) S 180 -5,3 C -0,7 C
09.04.2012 01:46 0,9 C 63 % 1012,1 hPa 0,0 l/m 6,1 km/h (2 Bft) SO 135 -5,3 C -1,0 C
09.04.2012 01:51 0,9 C 63 % 1012,0 hPa 0,0 l/m 5,4 km/h (1 Bft) S 180 -5,3 C -0,7 C
09.04.2012 01:56 0,9 C 63 % 1012,1 hPa 0,0 l/m 5,0 km/h (1 Bft) S-SO 157 -5,3 C -0,6 C
09.04.2012 02:01 0,9 C 63 % 1012,0 hPa 0,0 l/m 4,7 km/h (1 Bft) S 180 -5,3 C -0,4 C
09.04.2012 02:06 0,9 C 63 % 1011,9 hPa 0,0 l/m 5,0 km/h (1 Bft) S-SO 157 -5,3 C -0,6 C
09.04.2012 02:11 0,9 C 63 % 1011,8 hPa 0,0 l/m 8,3 km/h (2 Bft) S-SW 202 -5,3 C -1,8 C
09.04.2012 02:16 0,9 C 63 % 1011,7 hPa 0,0 l/m 7,6 km/h (2 Bft) SO 135 -5,3 C -1,6 C
09.04.2012 02:21 0,8 C 63 % 1011,6 hPa 0,0 l/m 9,0 km/h (2 Bft) S 180 -5,4 C -2,1 C
09.04.2012 02:26 0,8 C 63 % 1011,7 hPa 0,0 l/m 7,2 km/h (2 Bft) S 180 -5,4 C -1,5 C
09.04.2012 02:31 0,8 C 63 % 1011,4 hPa 0,0 l/m 9,0 km/h (2 Bft) S-SO 157 -5,4 C -2,1 C
09.04.2012 02:36 0,8 C 63 % 1011,3 hPa 0,0 l/m 4,7 km/h (1 Bft) SO 135 -5,4 C -0,5 C
09.04.2012 02:41 0,8 C 63 % 1011,2 hPa 0,0 l/m 5,8 km/h (2 Bft) S 180 -5,4 C -1,0 C
09.04.2012 02:46 0,8 C 63 % 1011,3 hPa 0,0 l/m 11,9 km/h (2 Bft) S 180 -5,4 C -2,8 C
09.04.2012 02:51 0,8 C 63 % 1011,1 hPa 0,0 l/m 3,2 km/h (1 Bft) S 180 -5,4 C 0,8 C
09.04.2012 02:56 0,8 C 63 % 1011,1 hPa 0,0 l/m 4,3 km/h (1 Bft) S-SO 157 -5,4 C 0,8 C
09.04.2012 03:01 0,8 C 63 % 1011,0 hPa 0,0 l/m 9,7 km/h (2 Bft) S-SO 157 -5,4 C -2,3 C
09.04.2012 03:06 0,8 C 63 % 1010,7 hPa 0,0 l/m 2,5 km/h (1 Bft) S 180 -5,4 C 0,8 C
09.04.2012 03:11 0,8 C 63 % 1010,8 hPa 0,0 l/m 0,0 km/h (0 Bft) SO 135 -5,4 C 0,8 C
09.04.2012 03:16 0,8 C 63 % 1010,6 hPa 0,0 l/m 6,8 km/h (2 Bft) S-SO 157 -5,4 C -1,4 C
09.04.2012 03:21 0,8 C 63 % 1010,7 hPa 0,0 l/m 4,3 km/h (1 Bft) S 180 -5,4 C 0,8 C
09.04.2012 03:26 0,8 C 63 % 1010,6 hPa 0,0 l/m 9,0 km/h (2 Bft) S 180 -5,4 C -2,1 C
09.04.2012 03:31 0,8 C 63 % 1010,6 hPa 0,0 l/m 9,4 km/h (2 Bft) S-SW 202 -5,4 C -2,2 C
09.04.2012 03:36 0,9 C 63 % 1010,5 hPa 0,0 l/m 7,6 km/h (2 Bft) S-SO 157 -5,3 C -1,6 C
09.04.2012 03:41 0,9 C 63 % 1010,4 hPa 0,0 l/m 4,3 km/h (1 Bft) S 180 -5,3 C 0,9 C
09.04.2012 03:46 0,9 C 63 % 1010,4 hPa 0,0 l/m 14,8 km/h (3 Bft) S 180 -5,3 C -3,3 C
09.04.2012 03:51 0,9 C 63 % 1010,2 hPa 0,0 l/m 5,0 km/h (1 Bft) SO 135 -5,3 C -0,6 C
09.04.2012 03:56 0,9 C 63 % 1010,0 hPa 0,0 l/m 6,5 km/h (2 Bft) S-SW 202 -5,3 C -1,2 C
09.04.2012 04:01 1,0 C 63 % 1009,9 hPa 0,0 l/m 11,9 km/h (2 Bft) S-SW 202 -5,2 C -2,6 C
09.04.2012 04:06 1,0 C 63 % 1010,0 hPa 0,0 l/m 8,3 km/h (2 Bft) S 180 -5,2 C -1,7 C
09.04.2012 04:11 1,1 C 63 % 1009,8 hPa 0,0 l/m 14,8 km/h (3 Bft) S 180 -5,1 C -3,0 C
09.04.2012 04:16 1,1 C 63 % 1009,9 hPa 0,0 l/m 11,9 km/h (2 Bft) S 180 -5,1 C -2,4 C
09.04.2012 04:21 1,1 C 63 % 1009,9 hPa 0,0 l/m 8,3 km/h (2 Bft) S-SO 157 -5,1 C -1,5 C
09.04.2012 04:26 1,2 C 63 % 1009,8 hPa 0,0 l/m 14,8 km/h (3 Bft) S 180 -5,0 C -2,9 C
09.04.2012 04:31 1,2 C 63 % 1009,8 hPa 0,0 l/m 5,0 km/h (1 Bft) O 90 -5,0 C -0,2 C
09.04.2012 04:36 1,2 C 63 % 1009,6 hPa 0,0 l/m 10,4 km/h (2 Bft) SO 135 -5,0 C -2,0 C
09.04.2012 04:41 1,3 C 63 % 1009,5 hPa 0,0 l/m 9,4 km/h (2 Bft) S-SO 157 -5,0 C -1,6 C
09.04.2012 04:46 1,3 C 63 % 1009,5 hPa 0,0 l/m 9,7 km/h (2 Bft) S-SO 157 -5,0 C -1,7 C
09.04.2012 04:51 1,3 C 63 % 1009,4 hPa 0,0 l/m 6,8 km/h (2 Bft) S-SO 157 -5,0 C -0,8 C
09.04.2012 04:56 1,3 C 63 % 1009,4 hPa 0,0 l/m 7,6 km/h (2 Bft) S 180 -5,0 C -1,1 C
09.04.2012 05:01 1,3 C 63 % 1009,2 hPa 0,0 l/m 4,0 km/h (1 Bft) S 180 -5,0 C 1,3 C
09.04.2012 05:06 1,3 C 64 % 1009,2 hPa 0,0 l/m 17,6 km/h (3 Bft) S 180 -4,7 C -3,2 C
09.04.2012 05:11 1,3 C 63 % 1009,0 hPa 0,0 l/m 14,8 km/h (3 Bft) SO 135 -5,0 C -2,8 C
09.04.2012 05:16 1,3 C 64 % 1008,9 hPa 0,0 l/m 2,9 km/h (1 Bft) S-SO 157 -4,7 C 1,3 C
09.04.2012 05:21 1,3 C 64 % 1008,7 hPa 0,0 l/m 7,2 km/h (2 Bft) S-SO 157 -4,7 C -1,0 C
09.04.2012 05:26 1,3 C 64 % 1008,7 hPa 0,0 l/m 15,5 km/h (3 Bft) S 180 -4,7 C -2,9 C
09.04.2012 05:31 1,3 C 64 % 1008,5 hPa 0,0 l/m 6,1 km/h (2 Bft) S-SO 157 -4,7 C -0,6 C
09.04.2012 05:36 1,3 C 64 % 1008,5 hPa 0,0 l/m 13,3 km/h (3 Bft) S-SO 157 -4,7 C -2,5 C
09.04.2012 05:41 1,3 C 64 % 1008,3 hPa 0,0 l/m 13,0 km/h (3 Bft) S-SW 202 -4,7 C -2,4 C
09.04.2012 05:46 1,4 C 63 % 1008,4 hPa 0,0 l/m 7,2 km/h (2 Bft) S-SW 202 -4,9 C -0,8 C
09.04.2012 05:51 1,4 C 64 % 1008,3 hPa 0,0 l/m 7,6 km/h (2 Bft) S 180 -4,6 C -1,0 C
09.04.2012 05:56 1,5 C 64 % 1008,4 hPa 0,0 l/m 14,8 km/h (3 Bft) S-SW 202 -4,6 C -2,5 C
09.04.2012 06:01 1,6 C 64 % 1008,1 hPa 0,0 l/m 4,0 km/h (1 Bft) S-SW 202 -4,5 C 1,6 C
09.04.2012 06:06 1,6 C 64 % 1008,2 hPa 0,0 l/m 13,0 km/h (3 Bft) S-SW 202 -4,5 C -2,1 C
09.04.2012 06:11 1,6 C 64 % 1008,1 hPa 0,0 l/m 9,0 km/h (2 Bft) S-SW 202 -4,5 C -1,1 C
09.04.2012 06:16 1,6 C 64 % 1008,1 hPa 0,0 l/m 8,3 km/h (2 Bft) S 180 -4,5 C -0,9 C
09.04.2012 06:21 1,6 C 64 % 1007,9 hPa 0,0 l/m 4,0 km/h (1 Bft) S-SO 157 -4,5 C 1,6 C
09.04.2012 06:26 1,6 C 64 % 1007,9 hPa 0,0 l/m 9,4 km/h (2 Bft) SO 135 -4,5 C -1,3 C
09.04.2012 06:31 1,6 C 64 % 1008,0 hPa 0,0 l/m 6,8 km/h (2 Bft) S 180 -4,5 C -0,5 C
09.04.2012 06:36 1,6 C 64 % 1007,9 hPa 0,0 l/m 12,6 km/h (3 Bft) S-SO 157 -4,5 C -2,0 C
09.04.2012 06:41 1,6 C 64 % 1007,9 hPa 0,0 l/m 8,6 km/h (2 Bft) S-SW 202 -4,5 C -1,0 C
09.04.2012 06:46 1,6 C 64 % 1007,7 hPa 0,0 l/m 6,8 km/h (2 Bft) S-SO 157 -4,5 C -0,5 C
09.04.2012 06:51 1,6 C 64 % 1007,7 hPa 0,0 l/m 9,4 km/h (2 Bft) S 180 -4,5 C -1,3 C
09.04.2012 06:56 1,6 C 64 % 1007,7 hPa 0,0 l/m 2,9 km/h (1 Bft) SO 135 -4,5 C 1,6 C
09.04.2012 07:01 1,6 C 64 % 1007,7 hPa 0,0 l/m 5,0 km/h (1 Bft) S-SO 157 -4,5 C 0,2 C
09.04.2012 07:06 1,8 C 64 % 1007,7 hPa 0,0 l/m 7,6 km/h (2 Bft) SO 135 -4,3 C -0,5 C
09.04.2012 07:11 1,8 C 64 % 1007,6 hPa 0,0 l/m 9,7 km/h (2 Bft) S-SO 157 -4,3 C -1,1 C
09.04.2012 07:16 1,8 C 64 % 1007,7 hPa 0,0 l/m 16,2 km/h (3 Bft) S-SW 202 -4,3 C -2,4 C
09.04.2012 07:21 1,8 C 64 % 1007,7 hPa 0,0 l/m 15,8 km/h (3 Bft) S-SW 202 -4,3 C -2,3 C
09.04.2012 07:26 1,8 C 64 % 1007,6 hPa 0,0 l/m 18,0 km/h (3 Bft) O 90 -4,3 C -2,7 C
09.04.2012 07:31 1,8 C 64 % 1007,4 hPa 0,0 l/m 8,3 km/h (2 Bft) S 180 -4,3 C -0,7 C
09.04.2012 07:36 1,8 C 64 % 1007,5 hPa 0,0 l/m 10,1 km/h (2 Bft) S-SW 202 -4,3 C -1,2 C
09.04.2012 07:41 1,9 C 64 % 1007,4 hPa 0,0 l/m 4,3 km/h (1 Bft) S-SO 157 -4,2 C 1,9 C
09.04.2012 07:46 1,9 C 64 % 1007,2 hPa 0,0 l/m 5,4 km/h (1 Bft) S 180 -4,2 C 0,4 C
09.04.2012 07:51 1,9 C 64 % 1007,2 hPa 0,0 l/m 10,1 km/h (2 Bft) S-SO 157 -4,2 C -1,1 C
09.04.2012 07:56 2,1 C 64 % 1007,3 hPa 0,0 l/m 10,4 km/h (2 Bft) S 180 -4,0 C -0,9 C
09.04.2012 08:01 2,2 C 63 % 1007,1 hPa 0,0 l/m 10,4 km/h (2 Bft) SW 225 -4,1 C -0,8 C
09.04.2012 08:06 2,3 C 63 % 1007,0 hPa 0,0 l/m 14,4 km/h (3 Bft) S-SW 202 -4,0 C -1,5 C
09.04.2012 08:11 2,5 C 63 % 1006,9 hPa 0,0 l/m 18,4 km/h (3 Bft) S-SW 202 -3,8 C -1,9 C
09.04.2012 08:16 2,7 C 63 % 1006,9 hPa 0,0 l/m 5,0 km/h (1 Bft) S 180 -3,6 C 1,5 C
09.04.2012 08:21 2,8 C 62 % 1006,8 hPa 0,0 l/m 6,1 km/h (2 Bft) S-SO 157 -3,7 C 1,2 C
09.04.2012 08:26 2,9 C 62 % 1006,6 hPa 0,0 l/m 12,2 km/h (2 Bft) S 180 -3,6 C -0,3 C
09.04.2012 08:31 3,0 C 62 % 1006,9 hPa 0,0 l/m 12,2 km/h (2 Bft) S 180 -3,6 C -0,2 C
09.04.2012 08:36 3,1 C 62 % 1006,8 hPa 0,0 l/m 14,8 km/h (3 Bft) S 180 -3,5 C -0,6 C
09.04.2012 08:41 3,3 C 61 % 1006,7 hPa 0,0 l/m 8,6 km/h (2 Bft) S 180 -3,5 C 1,0 C
09.04.2012 08:46 3,5 C 61 % 1006,7 hPa 0,0 l/m 7,2 km/h (2 Bft) S-SW 202 -3,3 C 1,6 C
09.04.2012 08:51 3,7 C 60 % 1006,7 hPa 0,0 l/m 17,3 km/h (3 Bft) S-SW 202 -3,3 C -0,2 C
09.04.2012 08:56 3,9 C 60 % 1006,6 hPa 0,0 l/m 7,6 km/h (2 Bft) O-SO 112 -3,1 C 2,0 C
09.04.2012 09:01 4,0 C 60 % 1006,5 hPa 0,0 l/m 8,3 km/h (2 Bft) S 180 -3,0 C 1,9 C
09.04.2012 09:06 4,1 C 60 % 1006,5 hPa 0,0 l/m 4,3 km/h (1 Bft) S-SW 202 -3,0 C 4,1 C
09.04.2012 09:11 4,3 C 59 % 1006,4 hPa 0,0 l/m 8,3 km/h (2 Bft) SW 225 -3,0 C 2,2 C
09.04.2012 09:16 4,4 C 60 % 1006,5 hPa 0,0 l/m 13,7 km/h (3 Bft) S-SO 157 -2,7 C 1,2 C
09.04.2012 09:21 4,7 C 59 % 1006,3 hPa 0,0 l/m 3,2 km/h (1 Bft) S-SW 202 -2,6 C 4,7 C
09.04.2012 09:26 4,9 C 58 % 1006,5 hPa 0,0 l/m 12,2 km/h (2 Bft) S-SO 157 -2,7 C 2,1 C
09.04.2012 09:31 5,0 C 58 % 1006,4 hPa 0,0 l/m 6,5 km/h (2 Bft) S 180 -2,6 C 3,6 C
09.04.2012 09:36 5,1 C 58 % 1006,3 hPa 0,0 l/m 15,5 km/h (3 Bft) S 180 -2,5 C 1,8 C
09.04.2012 09:41 5,3 C 58 % 1006,3 hPa 0,0 l/m 5,0 km/h (1 Bft) SO 135 -2,3 C 4,4 C
09.04.2012 09:46 5,6 C 58 % 1006,3 hPa 0,0 l/m 11,2 km/h (2 Bft) S-SW 202 -2,0 C 3,1 C
09.04.2012 09:51 5,9 C 58 % 1006,3 hPa 0,0 l/m 4,0 km/h (1 Bft) S 180 -1,7 C 5,9 C
09.04.2012 09:56 6,2 C 57 % 1006,2 hPa 0,0 l/m 6,5 km/h (2 Bft) SO 135 -1,7 C 4,9 C
09.04.2012 10:01 6,3 C 56 % 1006,2 hPa 0,0 l/m 9,7 km/h (2 Bft) S 180 -1,8 C 4,3 C
09.04.2012 10:06 6,3 C 56 % 1006,0 hPa 0,0 l/m 8,6 km/h (2 Bft) S-SW 202 -1,8 C 4,5 C
09.04.2012 10:11 6,4 C 56 % 1006,1 hPa 0,0 l/m 13,3 km/h (3 Bft) S 180 -1,7 C 3,7 C
09.04.2012 10:16 6,5 C 56 % 1005,9 hPa 0,0 l/m 13,0 km/h (3 Bft) S 180 -1,6 C 3,9 C
09.04.2012 10:21 6,7 C 56 % 1005,9 hPa 0,0 l/m 5,0 km/h (1 Bft) S 180 -1,4 C 6,0 C
09.04.2012 10:26 6,9 C 56 % 1005,8 hPa 0,0 l/m 17,3 km/h (3 Bft) SO 135 -1,3 C 3,8 C
09.04.2012 10:31 7,0 C 55 % 1005,8 hPa 0,0 l/m 6,8 km/h (2 Bft) S 180 -1,4 C 5,8 C
09.04.2012 10:36 7,2 C 56 % 1005,6 hPa 0,0 l/m 7,6 km/h (2 Bft) S 180 -1,0 C 5,8 C
09.04.2012 10:41 7,5 C 56 % 1005,5 hPa 0,0 l/m 5,4 km/h (1 Bft) SO 135 -0,7 C 6,8 C
09.04.2012 10:46 7,8 C 56 % 1005,8 hPa 0,0 l/m 13,7 km/h (3 Bft) S-SO 157 -0,4 C 5,4 C
09.04.2012 10:51 8,1 C 55 % 1005,7 hPa 0,0 l/m 18,0 km/h (3 Bft) S-SO 157 -0,4 C 5,2 C
09.04.2012 10:56 8,1 C 54 % 1005,6 hPa 0,0 l/m 6,1 km/h (2 Bft) S-SO 157 -0,6 C 7,3 C
09.04.2012 11:01 8,1 C 54 % 1005,6 hPa 0,0 l/m 11,2 km/h (2 Bft) SO 135 -0,6 C 6,1 C
09.04.2012 11:06 8,1 C 54 % 1005,5 hPa 0,0 l/m 11,2 km/h (2 Bft) S-SO 157 -0,6 C 6,1 C
09.04.2012 11:11 8,2 C 54 % 1005,2 hPa 0,0 l/m 5,0 km/h (1 Bft) S 180 -0,5 C 7,7 C
09.04.2012 11:16 8,3 C 53 % 1005,3 hPa 0,0 l/m 6,1 km/h (2 Bft) S-SO 157 -0,7 C 7,5 C
09.04.2012 11:21 8,4 C 53 % 1005,4 hPa 0,0 l/m 5,0 km/h (1 Bft) S-SO 157 -0,6 C 7,9 C
09.04.2012 11:26 8,5 C 53 % 1005,3 hPa 0,0 l/m 13,7 km/h (3 Bft) SO 135 -0,5 C 6,2 C
09.04.2012 11:31 8,7 C 53 % 1005,3 hPa 0,0 l/m 8,3 km/h (2 Bft) O-SO 112 -0,3 C 7,4 C
09.04.2012 11:36 8,8 C 52 % 1005,2 hPa 0,0 l/m 19,8 km/h (3 Bft) S 180 -0,5 C 5,9 C
09.04.2012 11:41 8,9 C 52 % 1005,2 hPa 0,0 l/m 11,2 km/h (2 Bft) S-SO 157 -0,4 C 7,1 C
09.04.2012 11:46 9,0 C 53 % 1005,1 hPa 0,0 l/m 11,5 km/h (2 Bft) S-SO 157 -0,1 C 7,2 C
09.04.2012 11:51 9,2 C 52 % 1005,3 hPa 0,0 l/m 7,9 km/h (2 Bft) S 180 -0,1 C 8,1 C
09.04.2012 11:56 9,2 C 52 % 1005,0 hPa 0,0 l/m 21,6 km/h (4 Bft) S-SW 202 -0,1 C 6,2 C
09.04.2012 12:01 9,2 C 51 % 1005,1 hPa 0,0 l/m 11,2 km/h (2 Bft) S 180 -0,4 C 7,5 C
09.04.2012 12:06 9,3 C 52 % 1004,9 hPa 0,0 l/m 16,9 km/h (3 Bft) S-SW 202 -0,0 C 6,8 C
09.04.2012 12:11 9,4 C 51 % 1004,9 hPa 0,0 l/m 6,1 km/h (2 Bft) S-SW 202 -0,2 C 8,8 C
09.04.2012 12:16 9,5 C 51 % 1004,8 hPa 0,0 l/m 9,7 km/h (2 Bft) S 180 -0,1 C 8,1 C
09.04.2012 12:21 9,5 C 51 % 1004,8 hPa 0,0 l/m 16,2 km/h (3 Bft) S-SW 202 -0,1 C 7,2 C
09.04.2012 12:26 9,6 C 51 % 1004,9 hPa 0,0 l/m 9,4 km/h (2 Bft) SW 225 -0,0 C 8,3 C
09.04.2012 12:31 9,8 C 52 % 1004,9 hPa 0,0 l/m 20,9 km/h (4 Bft) S-SO 157 0,4 C 7,0 C
09.04.2012 12:36 9,9 C 52 % 1004,8 hPa 0,0 l/m 9,0 km/h (2 Bft) SO 135 0,5 C 8,7 C
09.04.2012 12:41 10,1 C 52 % 1004,8 hPa 0,0 l/m 10,8 km/h (2 Bft) S-SW 202 0,7 C 10,1 C
09.04.2012 12:46 10,2 C 52 % 1004,9 hPa 0,0 l/m 8,3 km/h (2 Bft) S 180 0,8 C 10,2 C
09.04.2012 12:51 10,2 C 52 % 1004,8 hPa 0,0 l/m 10,1 km/h (2 Bft) S-SW 202 0,8 C 10,2 C
09.04.2012 12:56 10,3 C 52 % 1004,6 hPa 0,0 l/m 4,7 km/h (1 Bft) SO 135 0,9 C 10,3 C
09.04.2012 13:01 10,3 C 52 % 1004,7 hPa 0,0 l/m 14,4 km/h (3 Bft) S-SO 157 0,9 C 10,3 C
09.04.2012 13:06 10,3 C 53 % 1004,6 hPa 0,0 l/m 10,8 km/h (2 Bft) S-SO 157 1,1 C 10,3 C
09.04.2012 13:11 10,4 C 53 % 1004,6 hPa 0,0 l/m 8,3 km/h (2 Bft) SO 135 1,2 C 10,4 C
09.04.2012 13:16 10,3 C 53 % 1004,5 hPa 0,0 l/m 19,4 km/h (3 Bft) S 180 1,1 C 10,3 C
09.04.2012 13:21 10,3 C 53 % 1004,5 hPa 0,0 l/m 11,9 km/h (2 Bft) S 180 1,1 C 10,3 C
09.04.2012 13:26 10,2 C 53 % 1004,5 hPa 0,0 l/m 16,9 km/h (3 Bft) S-SO 157 1,1 C 10,2 C
09.04.2012 13:31 10,1 C 53 % 1004,5 hPa 0,0 l/m 15,8 km/h (3 Bft) S-SW 202 1,0 C 10,1 C
09.04.2012 13:36 10,1 C 53 % 1004,4 hPa 0,0 l/m 8,3 km/h (2 Bft) S 180 1,0 C 10,1 C
09.04.2012 13:41 10,1 C 53 % 1004,4 hPa 0,0 l/m 12,6 km/h (3 Bft) S-SW 202 1,0 C 10,1 C
09.04.2012 13:46 10,2 C 54 % 1004,2 hPa 0,0 l/m 12,6 km/h (3 Bft) S-SO 157 1,3 C 10,2 C
09.04.2012 13:51 10,4 C 54 % 1004,3 hPa 0,0 l/m 11,5 km/h (2 Bft) S-SW 202 1,5 C 10,4 C
09.04.2012 13:56 10,5 C 54 % 1004,2 hPa 0,0 l/m 15,1 km/h (3 Bft) SO 135 1,6 C 10,5 C
09.04.2012 14:01 10,6 C 55 % 1004,2 hPa 0,0 l/m 10,8 km/h (2 Bft) S 180 1,9 C 10,6 C
09.04.2012 14:06 10,7 C 55 % 1004,2 hPa 0,0 l/m 11,2 km/h (2 Bft) S-SW 202 2,0 C 10,7 C
09.04.2012 14:11 10,7 C 56 % 1004,4 hPa 0,0 l/m 15,1 km/h (3 Bft) S 180 2,3 C 10,7 C
09.04.2012 14:16 10,8 C 57 % 1004,2 hPa 0,0 l/m 26,3 km/h (4 Bft) W-SW 247 2,6 C 10,8 C
09.04.2012 14:21 10,8 C 58 % 1004,3 hPa 0,0 l/m 10,8 km/h (2 Bft) S-SO 157 2,9 C 10,8 C
09.04.2012 14:26 10,7 C 59 % 1004,2 hPa 0,0 l/m 25,2 km/h (4 Bft) W-SW 247 3,0 C 10,7 C
09.04.2012 14:31 10,6 C 59 % 1004,3 hPa 0,0 l/m 12,6 km/h (3 Bft) W 270 2,9 C 10,6 C
09.04.2012 14:36 10,5 C 60 % 1004,1 hPa 0,0 l/m 22,7 km/h (4 Bft) SW 225 3,1 C 10,5 C
09.04.2012 14:41 10,4 C 60 % 1004,2 hPa 0,0 l/m 10,4 km/h (2 Bft) SO 135 3,0 C 10,4 C
09.04.2012 14:46 10,2 C 61 % 1004,1 hPa 0,0 l/m 19,1 km/h (3 Bft) S 180 3,0 C 10,2 C
09.04.2012 14:51 10,1 C 62 % 1004,2 hPa 0,0 l/m 11,9 km/h (2 Bft) S-SO 157 3,2 C 10,1 C
09.04.2012 14:56 9,9 C 63 % 1004,1 hPa 0,0 l/m 20,5 km/h (4 Bft) S-SW 202 3,2 C 7,2 C
09.04.2012 15:01 9,9 C 64 % 1004,1 hPa 0,0 l/m 9,7 km/h (2 Bft) S-SW 202 3,4 C 8,6 C
09.04.2012 15:06 9,8 C 65 % 1004,1 hPa 0,0 l/m 17,3 km/h (3 Bft) S-SW 202 3,5 C 7,4 C
09.04.2012 15:11 9,6 C 65 % 1004,0 hPa 0,0 l/m 9,0 km/h (2 Bft) W-SW 247 3,4 C 8,3 C
09.04.2012 15:16 9,6 C 66 % 1004,0 hPa 0,0 l/m 16,2 km/h (3 Bft) S-SW 202 3,6 C 7,3 C
09.04.2012 15:21 9,5 C 66 % 1003,9 hPa 0,0 l/m 16,6 km/h (3 Bft) S-SW 202 3,5 C 7,1 C
09.04.2012 15:26 9,4 C 67 % 1004,0 hPa 0,0 l/m 16,9 km/h (3 Bft) S-SW 202 3,6 C 6,9 C
09.04.2012 15:31 9,3 C 67 % 1003,9 hPa 0,0 l/m 7,2 km/h (2 Bft) SW 225 3,5 C 8,4 C
09.04.2012 15:36 9,3 C 68 % 1003,8 hPa 0,0 l/m 14,4 km/h (3 Bft) SW 225 3,7 C 7,1 C
09.04.2012 15:41 9,2 C 68 % 1003,9 hPa 0,0 l/m 10,1 km/h (2 Bft) S 180 3,6 C 7,7 C
09.04.2012 15:46 9,1 C 69 % 1003,7 hPa 0,0 l/m 7,2 km/h (2 Bft) S-SO 157 3,7 C 8,1 C
09.04.2012 15:51 9,0 C 69 % 1003,6 hPa 0,0 l/m 15,5 km/h (3 Bft) S-SW 202 3,6 C 6,6 C
09.04.2012 15:56 8,9 C 69 % 1003,6 hPa 0,0 l/m 15,1 km/h (3 Bft) S-SO 157 3,5 C 6,5 C
09.04.2012 16:01 8,9 C 68 % 1003,6 hPa 0,0 l/m 16,9 km/h (3 Bft) SO 135 3,3 C 6,3 C
09.04.2012 16:06 8,8 C 69 % 1003,7 hPa 0,0 l/m 18,0 km/h (3 Bft) S 180 3,4 C 6,1 C
09.04.2012 16:11 8,8 C 70 % 1003,7 hPa 0,0 l/m 10,1 km/h (2 Bft) S-SW 202 3,6 C 7,2 C
09.04.2012 16:16 8,8 C 70 % 1003,6 hPa 0,0 l/m 11,9 km/h (2 Bft) S-SW 202 3,6 C 6,9 C
09.04.2012 16:21 8,8 C 70 % 1003,7 hPa 0,0 l/m 5,0 km/h (1 Bft) SO 135 3,6 C 8,4 C
09.04.2012 16:26 8,9 C 71 % 1003,6 hPa 0,0 l/m 11,2 km/h (2 Bft) S-SO 157 3,9 C 7,1 C
09.04.2012 16:31 8,9 C 71 % 1003,5 hPa 0,0 l/m 12,2 km/h (2 Bft) S-SO 157 3,9 C 7,0 C
09.04.2012 16:36 8,9 C 72 % 1003,7 hPa 0,0 l/m 8,3 km/h (2 Bft) S-SO 157 4,1 C 7,7 C
09.04.2012 16:41 8,9 C 72 % 1003,6 hPa 0,5 l/m 10,8 km/h (2 Bft) SO 135 4,1 C 7,2 C
09.04.2012 16:46 8,9 C 72 % 1003,6 hPa 0,0 l/m 24,1 km/h (4 Bft) S-SO 157 4,1 C 5,6 C
09.04.2012 16:51 8,8 C 72 % 1003,5 hPa 0,0 l/m 19,4 km/h (3 Bft) S-SW 202 4,0 C 5,9 C
09.04.2012 16:56 8,8 C 72 % 1003,6 hPa 0,0 l/m 4,7 km/h (1 Bft) W-SW 247 4,0 C 8,5 C
09.04.2012 17:01 8,7 C 72 % 1003,5 hPa 0,0 l/m 18,4 km/h (3 Bft) SO 135 3,9 C 5,9 C
09.04.2012 17:06 8,7 C 72 % 1003,5 hPa 0,0 l/m 11,2 km/h (2 Bft) S-SW 202 3,9 C 6,9 C
09.04.2012 17:11 8,6 C 73 % 1003,5 hPa 0,0 l/m 13,0 km/h (3 Bft) S-SW 202 4,0 C 6,5 C
09.04.2012 17:16 8,6 C 74 % 1003,5 hPa 0,0 l/m 16,6 km/h (3 Bft) S 180 4,2 C 6,0 C
09.04.2012 17:21 8,6 C 74 % 1003,4 hPa 0,0 l/m 11,9 km/h (2 Bft) S-SW 202 4,2 C 6,6 C
09.04.2012 17:26 8,6 C 74 % 1003,3 hPa 0,0 l/m 8,6 km/h (2 Bft) S-SW 202 4,2 C 7,2 C
09.04.2012 17:31 8,6 C 74 % 1003,4 hPa 0,0 l/m 10,4 km/h (2 Bft) S-SW 202 4,2 C 6,9 C
09.04.2012 17:36 8,6 C 75 % 1003,3 hPa 0,0 l/m 14,4 km/h (3 Bft) S-SW 202 4,4 C 6,3 C
09.04.2012 17:41 8,6 C 75 % 1003,3 hPa 0,0 l/m 4,0 km/h (1 Bft) S 180 4,4 C 8,6 C
09.04.2012 17:46 8,5 C 75 % 1003,3 hPa 0,0 l/m 16,6 km/h (3 Bft) S 180 4,3 C 5,9 C
09.04.2012 17:51 8,5 C 75 % 1003,3 hPa 0,0 l/m 8,3 km/h (2 Bft) S 180 4,3 C 7,2 C
09.04.2012 17:56 8,6 C 75 % 1003,1 hPa 0,0 l/m 14,4 km/h (3 Bft) S 180 4,4 C 6,3 C
09.04.2012 18:01 8,6 C 75 % 1003,0 hPa 0,0 l/m 9,4 km/h (2 Bft) S 180 4,4 C 7,1 C
09.04.2012 18:06 8,6 C 75 % 1003,1 hPa 0,0 l/m 10,1 km/h (2 Bft) W-SW 247 4,4 C 6,9 C
09.04.2012 18:11 8,5 C 75 % 1003,1 hPa 0,0 l/m 9,4 km/h (2 Bft) S-SO 157 4,3 C 7,0 C
09.04.2012 18:16 8,5 C 76 % 1003,1 hPa 0,0 l/m 11,2 km/h (2 Bft) S 180 4,5 C 6,6 C
09.04.2012 18:21 8,5 C 76 % 1003,2 hPa 0,0 l/m 21,6 km/h (4 Bft) S-SO 157 4,5 C 5,3 C
09.04.2012 18:26 8,5 C 76 % 1003,2 hPa 0,0 l/m 9,7 km/h (2 Bft) SO 135 4,5 C 6,9 C
09.04.2012 18:31 8,5 C 77 % 1003,0 hPa 0,0 l/m 8,3 km/h (2 Bft) S-SO 157 4,7 C 7,2 C
09.04.2012 18:36 8,5 C 77 % 1003,1 hPa 0,0 l/m 15,1 km/h (3 Bft) S 180 4,7 C 6,1 C
09.04.2012 18:41 8,4 C 77 % 1003,1 hPa 0,0 l/m 10,8 km/h (2 Bft) S-SO 157 4,6 C 6,6 C
09.04.2012 18:46 8,4 C 76 % 1003,2 hPa 0,0 l/m 16,9 km/h (3 Bft) S-SW 202 4,4 C 5,7 C
09.04.2012 18:51 8,3 C 76 % 1003,1 hPa 0,0 l/m 7,9 km/h (2 Bft) S-SO 157 4,3 C 7,0 C
09.04.2012 18:56 8,3 C 77 % 1003,2 hPa 0,0 l/m 10,8 km/h (2 Bft) S 180 4,5 C 6,5 C
09.04.2012 19:01 8,2 C 77 % 1003,2 hPa 0,0 l/m 13,3 km/h (3 Bft) SO 135 4,4 C 5,9 C
09.04.2012 19:06 8,1 C 78 % 1003,1 hPa 0,0 l/m 19,1 km/h (3 Bft) SO 135 4,5 C 5,1 C
09.04.2012 19:11 8,1 C 78 % 1003,1 hPa 0,0 l/m 8,6 km/h (2 Bft) S-SW 202 4,5 C 6,6 C
09.04.2012 19:16 8,0 C 78 % 1003,0 hPa 0,0 l/m 11,2 km/h (2 Bft) S-SO 157 4,4 C 6,0 C
09.04.2012 19:21 7,9 C 78 % 1003,1 hPa 0,0 l/m 9,4 km/h (2 Bft) S 180 4,3 C 6,2 C
09.04.2012 19:26 7,9 C 79 % 1003,0 hPa 0,0 l/m 5,8 km/h (2 Bft) S-SO 157 4,5 C 7,1 C
09.04.2012 19:31 7,8 C 79 % 1003,1 hPa 0,0 l/m 6,1 km/h (2 Bft) S-SW 202 4,4 C 6,9 C
09.04.2012 19:36 7,8 C 79 % 1003,1 hPa 0,0 l/m 7,6 km/h (2 Bft) S-SO 157 4,4 C 6,5 C
09.04.2012 19:41 7,8 C 80 % 1002,9 hPa 0,0 l/m 4,0 km/h (1 Bft) S-SO 157 4,6 C 7,8 C
09.04.2012 19:46 7,7 C 79 % 1002,8 hPa 0,0 l/m 5,0 km/h (1 Bft) S-SO 157 4,3 C 7,1 C
09.04.2012 19:51 7,6 C 80 % 1002,9 hPa 0,0 l/m 5,0 km/h (1 Bft) S 180 4,4 C 7,0 C
09.04.2012 19:56 7,6 C 80 % 1003,0 hPa 0,0 l/m 8,6 km/h (2 Bft) S-SW 202 4,4 C 6,1 C
09.04.2012 20:01 7,6 C 80 % 1003,0 hPa 0,0 l/m 7,9 km/h (2 Bft) S-SO 157 4,4 C 6,2 C
09.04.2012 20:06 7,5 C 81 % 1003,0 hPa 0,0 l/m 14,8 km/h (3 Bft) SO 135 4,5 C 4,9 C
09.04.2012 20:11 7,5 C 81 % 1003,0 hPa 0,0 l/m 11,2 km/h (2 Bft) S 180 4,5 C 5,4 C
09.04.2012 20:16 7,5 C 81 % 1003,0 hPa 0,0 l/m 7,2 km/h (2 Bft) S-SW 202 4,5 C 6,3 C
09.04.2012 20:21 7,4 C 81 % 1002,8 hPa 0,0 l/m 5,0 km/h (1 Bft) S-SO 157 4,4 C 6,8 C
09.04.2012 20:26 7,4 C 81 % 1002,9 hPa 0,0 l/m 4,0 km/h (1 Bft) S 180 4,4 C 7,4 C
09.04.2012 20:31 7,4 C 81 % 1003,0 hPa 0,0 l/m 7,2 km/h (2 Bft) S-SO 157 4,4 C 6,1 C
09.04.2012 20:36 7,4 C 81 % 1003,1 hPa 0,0 l/m 3,2 km/h (1 Bft) S-SO 157 4,4 C 7,4 C
09.04.2012 20:41 7,4 C 81 % 1003,0 hPa 0,0 l/m 7,9 km/h (2 Bft) S 180 4,4 C 6,0 C
09.04.2012 20:46 7,4 C 81 % 1002,9 hPa 0,0 l/m 5,8 km/h (2 Bft) SO 135 4,4 C 6,5 C
09.04.2012 20:51 7,4 C 81 % 1002,9 hPa 0,0 l/m 11,9 km/h (2 Bft) SO 135 4,4 C 5,2 C
09.04.2012 20:56 7,4 C 81 % 1003,0 hPa 0,0 l/m 8,3 km/h (2 Bft) SW 225 4,4 C 5,9 C
09.04.2012 21:01 7,4 C 81 % 1003,0 hPa 0,0 l/m 10,8 km/h (2 Bft) SO 135 4,4 C 5,4 C
09.04.2012 21:06 7,4 C 81 % 1003,0 hPa 0,0 l/m 15,8 km/h (3 Bft) S-SW 202 4,4 C 4,6 C
09.04.2012 21:11 7,4 C 81 % 1002,9 hPa 0,0 l/m 3,6 km/h (1 Bft) SO 135 4,4 C 7,4 C
09.04.2012 21:16 7,4 C 81 % 1002,8 hPa 0,0 l/m 5,0 km/h (1 Bft) S-SW 202 4,4 C 6,8 C
09.04.2012 21:21 7,3 C 81 % 1002,8 hPa 0,0 l/m 12,2 km/h (2 Bft) S 180 4,3 C 5,0 C
09.04.2012 21:26 7,3 C 81 % 1002,7 hPa 0,0 l/m 5,8 km/h (2 Bft) S-SO 157 4,3 C 6,4 C
09.04.2012 21:31 7,3 C 81 % 1002,7 hPa 0,0 l/m 8,3 km/h (2 Bft) S 180 4,3 C 5,8 C
09.04.2012 21:36 7,3 C 81 % 1002,7 hPa 0,0 l/m 4,0 km/h (1 Bft) S-SO 157 4,3 C 7,3 C
09.04.2012 21:41 7,3 C 81 % 1002,7 hPa 0,0 l/m 9,7 km/h (2 Bft) S 180 4,3 C 5,5 C
09.04.2012 21:46 7,3 C 81 % 1002,6 hPa 0,0 l/m 4,0 km/h (1 Bft) S-SO 157 4,3 C 7,3 C
09.04.2012 21:51 7,3 C 81 % 1002,6 hPa 0,0 l/m 7,2 km/h (2 Bft) S 180 4,3 C 6,0 C
09.04.2012 21:56 7,3 C 81 % 1002,6 hPa 0,0 l/m 19,4 km/h (3 Bft) SO 135 4,3 C 4,0 C
09.04.2012 22:01 7,3 C 81 % 1002,4 hPa 0,0 l/m 13,0 km/h (3 Bft) S-SW 202 4,3 C 4,9 C
09.04.2012 22:06 7,3 C 81 % 1002,4 hPa 0,0 l/m 7,9 km/h (2 Bft) S 180 4,3 C 5,9 C
09.04.2012 22:11 7,3 C 80 % 1002,2 hPa 0,0 l/m 11,2 km/h (2 Bft) S-SO 157 4,1 C 5,2 C
09.04.2012 22:16 7,3 C 81 % 1002,3 hPa 0,0 l/m 5,8 km/h (2 Bft) S 180 4,3 C 6,4 C
09.04.2012 22:21 7,3 C 81 % 1002,3 hPa 0,0 l/m 5,8 km/h (2 Bft) SW 225 4,3 C 6,4 C
09.04.2012 22:26 7,2 C 81 % 1002,4 hPa 0,0 l/m 4,7 km/h (1 Bft) S-SO 157 4,2 C 6,7 C
09.04.2012 22:31 7,2 C 81 % 1002,2 hPa 0,0 l/m 5,0 km/h (1 Bft) S-SW 202 4,2 C 6,6 C
09.04.2012 22:36 7,2 C 81 % 1002,2 hPa 0,0 l/m 11,5 km/h (2 Bft) S 180 4,2 C 5,0 C
09.04.2012 22:41 7,2 C 81 % 1002,3 hPa 0,0 l/m 9,0 km/h (2 Bft) S-SO 157 4,2 C 5,5 C
09.04.2012 22:46 7,1 C 81 % 1002,1 hPa 0,0 l/m 10,8 km/h (2 Bft) S-SW 202 4,1 C 5,0 C
09.04.2012 22:51 7,1 C 81 % 1002,2 hPa 0,0 l/m 9,7 km/h (2 Bft) S 180 4,1 C 5,2 C
09.04.2012 22:56 7,1 C 81 % 1002,1 hPa 0,0 l/m 4,7 km/h (1 Bft) O-SO 112 4,1 C 6,6 C
09.04.2012 23:01 7,0 C 81 % 1002,2 hPa 0,0 l/m 10,8 km/h (2 Bft) S-SO 157 4,0 C 4,9 C
09.04.2012 23:06 7,0 C 81 % 1001,9 hPa 0,0 l/m 8,3 km/h (2 Bft) S 180 4,0 C 5,4 C
09.04.2012 23:11 6,9 C 81 % 1002,0 hPa 0,0 l/m 6,8 km/h (2 Bft) S-SO 157 3,9 C 5,7 C
09.04.2012 23:16 6,9 C 81 % 1002,0 hPa 0,0 l/m 6,1 km/h (2 Bft) S-SO 157 3,9 C 5,9 C
09.04.2012 23:21 6,9 C 81 % 1001,9 hPa 0,0 l/m 19,4 km/h (3 Bft) S 180 3,9 C 3,5 C
09.04.2012 23:26 6,9 C 81 % 1002,0 hPa 0,0 l/m 11,5 km/h (2 Bft) S 180 3,9 C 4,6 C
09.04.2012 23:31 6,9 C 81 % 1001,9 hPa 0,0 l/m 16,9 km/h (3 Bft) S-SO 157 3,9 C 3,8 C
09.04.2012 23:36 6,9 C 82 % 1002,0 hPa 0,0 l/m 5,8 km/h (2 Bft) S 180 4,0 C 6,0 C
09.04.2012 23:41 6,9 C 82 % 1001,8 hPa 0,0 l/m 10,8 km/h (2 Bft) SO 135 4,0 C 4,8 C
09.04.2012 23:46 6,9 C 82 % 1001,7 hPa 0,0 l/m 9,7 km/h (2 Bft) S 180 4,0 C 5,0 C
09.04.2012 23:51 6,9 C 82 % 1001,6 hPa 0,0 l/m 16,6 km/h (3 Bft) S-SW 202 4,0 C 3,9 C
09.04.2012 23:56 6,9 C 82 % 1001,7 hPa 0,0 l/m 10,8 km/h (2 Bft) S-SO 157 4,0 C 4,8 C
_ Min-Zeit 02:21 12:01 23:51 - 03:11 - - 02:21 03:46
Minimum _ 0,8 C 51 % 1001,6 hPa - 0,0 km/h (0 Bft) - - -5,4 C -3,3 C
_ Max-Zeit 14:16 23:36 00:06 16:41 14:16 - - 18:31 14:16
Maximum _ 10,8 C 82 % 1013,2 hPa 0,5 l/m 26,3 km/h
W-SW (4 Bft)
- - 4,7 C 10,8 C
Durchschnitt _ 5,7 C 66 % 1006,0 hPa #0,5 l/m 9,9 km/h (2 Bft) S - -0,2 C 4,0 C
(c) by David Heller